createdAt,value
2018-02-19T00:00:46.336Z,90.73
2018-02-19T00:03:15.381Z,91.41
2018-02-19T00:05:43.639Z,92.51
2018-02-19T00:08:11.902Z,91.99
2018-02-19T00:10:40.956Z,92.29
2018-02-19T00:13:09.240Z,92.74
2018-02-19T00:15:37.519Z,93.02
2018-02-19T00:18:05.790Z,91.66
2018-02-19T00:20:34.050Z,90.48
2018-02-19T00:23:02.329Z,91.36
2018-02-19T00:25:30.622Z,92.03
2018-02-19T00:27:58.894Z,92.63
2018-02-19T00:30:27.180Z,92.43
2018-02-19T00:32:55.432Z,92.48
2018-02-19T00:35:23.721Z,91.83
2018-02-19T00:37:51.991Z,91.77
2018-02-19T00:40:20.270Z,91.32
2018-02-19T00:42:48.547Z,90.82
2018-02-19T00:45:17.380Z,88.75
2018-02-19T00:47:46.413Z,88.00
2018-02-19T00:50:14.672Z,87.71
2018-02-19T00:52:43.693Z,87.50
2018-02-19T00:55:11.973Z,88.28
2018-02-19T00:57:41.005Z,86.69
2018-02-19T01:00:09.283Z,87.56
2018-02-19T01:02:37.538Z,86.96
2018-02-19T01:05:05.821Z,87.69
2018-02-19T01:07:34.072Z,87.72
2018-02-19T01:10:03.103Z,88.06
2018-02-19T01:12:31.370Z,87.69
2018-02-19T01:14:59.661Z,88.53
2018-02-19T01:17:27.904Z,88.87
2018-02-19T01:19:56.176Z,88.99
2018-02-19T01:22:25.212Z,89.35
2018-02-19T01:24:53.489Z,90.24
2018-02-19T01:27:22.513Z,90.16
2018-02-19T01:29:50.789Z,89.63
2018-02-19T01:32:19.843Z,88.99
2018-02-19T01:34:48.133Z,89.54
2018-02-19T01:37:16.382Z,88.95
2018-02-19T01:39:44.640Z,86.96
2018-02-19T01:42:12.916Z,88.08
2018-02-19T01:44:41.190Z,88.57
2018-02-19T01:47:09.462Z,88.09
2018-02-19T01:49:37.724Z,88.59
2018-02-19T01:52:06.007Z,88.50
2018-02-19T01:54:35.024Z,89.09
2018-02-19T01:57:03.310Z,88.31
2018-02-19T01:59:31.577Z,89.42
2018-02-19T02:02:00.631Z,89.96
2018-02-19T02:04:28.881Z,89.41
2018-02-19T02:06:57.932Z,90.00
2018-02-19T02:09:26.183Z,89.78
2018-02-19T02:11:54.473Z,89.92
2018-02-19T02:14:22.748Z,90.19
2018-02-19T02:16:51.796Z,88.10
2018-02-19T02:19:20.096Z,89.32
2018-02-19T02:21:48.375Z,89.46
2018-02-19T02:24:16.639Z,90.27
2018-02-19T02:26:44.936Z,89.01
2018-02-19T02:29:13.205Z,89.21
2018-02-19T02:31:42.261Z,88.92
2018-02-19T02:34:10.516Z,89.48
2018-02-19T02:36:38.791Z,89.50
2018-02-19T02:39:07.067Z,89.33
2018-02-19T02:41:36.119Z,90.22
2018-02-19T02:44:04.393Z,90.70
2018-02-19T02:46:32.686Z,91.18
2018-02-19T02:49:00.961Z,92.31
2018-02-19T02:51:29.826Z,92.37
2018-02-19T02:53:58.878Z,93.61
2018-02-19T02:56:27.163Z,93.84
2018-02-19T02:58:55.442Z,92.97
2018-02-19T03:01:24.501Z,91.94
2018-02-19T03:03:52.764Z,91.65
2018-02-19T03:06:21.055Z,91.03
2018-02-19T03:08:49.333Z,90.63
2018-02-19T03:11:17.622Z,91.00
2018-02-19T03:13:45.915Z,90.06
2018-02-19T03:16:14.184Z,88.49
2018-02-19T03:18:43.235Z,88.90
2018-02-19T03:21:11.501Z,89.76
2018-02-19T03:23:39.781Z,89.17
2018-02-19T03:26:08.054Z,89.26
2018-02-19T03:28:37.104Z,89.00
2018-02-19T03:31:05.381Z,89.77
2018-02-19T03:33:33.656Z,90.02
2018-02-19T03:36:01.957Z,90.71
2018-02-19T03:38:30.244Z,90.98
2018-02-19T03:40:58.513Z,90.24
2018-02-19T03:43:27.575Z,89.56
2018-02-19T03:45:55.853Z,90.90
2018-02-19T03:48:24.165Z,90.57
2018-02-19T03:50:52.428Z,90.45
2018-02-19T03:53:21.496Z,89.26
2018-02-19T03:55:49.773Z,89.46
2018-02-19T03:58:18.812Z,89.02
2018-02-19T04:00:47.100Z,89.43
2018-02-19T04:03:15.380Z,90.56
2018-02-19T04:05:43.639Z,90.40
2018-02-19T04:08:12.677Z,88.82
2018-02-19T04:10:40.952Z,88.00
2018-02-19T04:13:09.236Z,88.42
2018-02-19T04:15:37.491Z,87.95
2018-02-19T04:18:05.766Z,88.23
2018-02-19T04:20:34.019Z,89.40
2018-02-19T04:23:02.299Z,87.79
2018-02-19T04:25:30.567Z,87.74
2018-02-19T04:27:58.862Z,86.33
2018-02-19T04:30:27.908Z,88.04
2018-02-19T04:32:56.175Z,87.94
2018-02-19T04:35:24.471Z,86.92
2018-02-19T04:37:52.746Z,88.42
2018-02-19T04:40:21.029Z,87.47
2018-02-19T04:42:51.385Z,87.47
2018-02-19T04:45:19.652Z,87.08
2018-02-19T04:47:48.687Z,86.07
2018-02-19T04:50:16.968Z,86.36
2018-02-19T04:52:45.245Z,85.62
2018-02-19T04:55:14.281Z,87.13
2018-02-19T04:57:42.558Z,85.91
2018-02-19T05:00:11.865Z,85.35
2018-02-19T05:02:40.140Z,85.01
2018-02-19T05:05:09.193Z,86.33
2018-02-19T05:07:37.477Z,86.14
2018-02-19T05:10:05.753Z,85.85
2018-02-19T05:12:34.021Z,85.76
2018-02-19T05:15:02.303Z,84.23
2018-02-19T05:17:31.353Z,84.36
2018-02-19T05:19:59.626Z,84.69
2018-02-19T05:22:27.901Z,83.98
2018-02-19T05:24:56.179Z,83.73
2018-02-19T05:27:25.214Z,85.17
2018-02-19T05:29:53.515Z,83.39
2018-02-19T05:32:21.784Z,82.75
2018-02-19T05:34:50.068Z,83.63
2018-02-19T05:37:18.346Z,84.68
2018-02-19T05:39:47.394Z,85.70
2018-02-19T05:42:15.671Z,85.16
2018-02-19T05:44:43.960Z,85.67
2018-02-19T05:47:12.223Z,84.55
2018-02-19T05:49:41.583Z,86.03
2018-02-19T05:52:10.009Z,86.23
2018-02-19T05:54:39.253Z,85.49
2018-02-19T05:57:07.551Z,84.59
2018-02-19T05:59:35.859Z,84.54
2018-02-19T06:02:04.389Z,84.34
2018-02-19T06:04:33.267Z,85.49
2018-02-19T06:07:02.439Z,84.21
2018-02-19T06:09:30.949Z,85.11
2018-02-19T06:11:59.499Z,85.57
2018-02-19T06:14:27.800Z,85.27
2018-02-19T06:16:56.300Z,85.12
2018-02-19T06:19:24.620Z,84.57
2018-02-19T06:21:52.989Z,84.50
2018-02-19T06:24:21.340Z,86.56
2018-02-19T06:26:49.661Z,85.75
2018-02-19T06:29:18.657Z,84.39
2018-02-19T06:31:47.917Z,85.89
2018-02-19T06:34:16.239Z,86.27
2018-02-19T06:36:45.324Z,86.16
2018-02-19T06:39:13.618Z,85.62
2018-02-19T06:41:42.652Z,85.09
2018-02-19T06:44:11.809Z,84.58
2018-02-19T06:46:40.161Z,84.71
2018-02-19T06:49:08.448Z,84.30
2018-02-19T06:51:37.500Z,84.86
2018-02-19T06:54:05.772Z,84.73
2018-02-19T06:56:34.243Z,81.74
2018-02-19T06:59:03.332Z,80.51
2018-02-19T07:01:31.707Z,81.40
2018-02-19T07:03:59.991Z,81.26
2018-02-19T07:06:28.530Z,81.99
2018-02-19T07:08:58.162Z,80.05
2018-02-19T07:11:27.330Z,81.14
2018-02-19T07:13:55.641Z,79.59
2018-02-19T07:16:24.687Z,79.98
2018-02-19T07:18:53.100Z,80.11
2018-02-19T07:21:21.456Z,81.63
2018-02-19T07:23:49.778Z,81.06
2018-02-19T07:26:18.351Z,78.71
2018-02-19T07:28:46.677Z,77.20
2018-02-19T07:31:14.956Z,79.06
2018-02-19T07:33:43.254Z,79.48
2018-02-19T07:36:11.635Z,80.18
2018-02-19T07:38:39.920Z,80.67
2018-02-19T07:41:08.202Z,80.16
2018-02-19T07:43:36.536Z,80.49
2018-02-19T07:46:05.996Z,78.87
2018-02-19T07:48:34.360Z,79.05
2018-02-19T07:51:03.520Z,76.34
2018-02-19T07:53:32.130Z,77.85
2018-02-19T07:56:00.391Z,76.67
2018-02-19T07:58:28.790Z,78.82
2018-02-19T08:00:57.362Z,79.97
2018-02-19T08:03:25.701Z,79.50
2018-02-19T08:05:54.223Z,78.73
2018-02-19T08:08:23.569Z,78.45
2018-02-19T08:10:51.935Z,79.51
2018-02-19T08:13:20.612Z,77.36
2018-02-19T08:15:49.989Z,78.29
2018-02-19T08:18:18.342Z,77.13
2018-02-19T08:20:46.754Z,76.24
2018-02-19T08:23:15.020Z,77.57
2018-02-19T08:25:43.288Z,79.01
2018-02-19T08:28:13.179Z,80.14
2018-02-19T08:30:41.934Z,79.90
2018-02-19T08:33:10.733Z,78.90
2018-02-19T08:35:39.094Z,78.83
2018-02-19T08:38:07.450Z,79.26
2018-02-19T08:40:35.873Z,81.38
2018-02-19T08:43:04.147Z,78.61
2018-02-19T08:45:32.565Z,75.86
2018-02-19T08:48:00.816Z,73.90
2018-02-19T08:50:29.893Z,76.04
2018-02-19T08:52:58.275Z,75.03
2018-02-19T08:55:26.613Z,74.97
2018-02-19T08:57:55.240Z,75.54
2018-02-19T09:00:24.558Z,75.09
2018-02-19T09:02:53.138Z,75.40
2018-02-19T09:05:21.791Z,74.01
2018-02-19T09:07:50.333Z,73.26
2018-02-19T09:10:19.899Z,72.78
2018-02-19T09:12:48.268Z,74.55
2018-02-19T09:15:18.189Z,75.19
2018-02-19T09:17:46.687Z,75.76
2018-02-19T09:20:15.859Z,76.50
2018-02-19T09:22:44.187Z,76.73
2018-02-19T09:25:13.408Z,77.51
2018-02-19T09:27:41.702Z,75.71
2018-02-19T09:30:09.982Z,74.38
2018-02-19T09:32:38.484Z,72.70
2018-02-19T09:35:06.843Z,72.85
2018-02-19T09:37:35.283Z,73.82
2018-02-19T09:40:03.868Z,74.01
2018-02-19T09:42:32.291Z,72.13
2018-02-19T09:45:00.732Z,74.46
2018-02-19T09:47:29.125Z,75.07
2018-02-19T09:49:58.255Z,75.63
2018-02-19T09:52:26.520Z,73.18
2018-02-19T09:54:55.589Z,71.87
2018-02-19T09:57:24.617Z,74.04
2018-02-19T09:59:52.932Z,71.73
2018-02-19T10:02:22.070Z,73.23
2018-02-19T10:04:50.426Z,74.34
2018-02-19T10:07:19.554Z,72.75
2018-02-19T10:09:49.130Z,70.74
2018-02-19T10:12:17.396Z,70.51
2018-02-19T10:14:45.800Z,70.26
2018-02-19T10:17:14.073Z,71.19
2018-02-19T10:19:42.328Z,70.97
2018-02-19T10:22:10.663Z,69.61
2018-02-19T10:24:38.942Z,70.22
2018-02-19T10:27:07.233Z,70.13
2018-02-19T10:29:35.498Z,71.19
2018-02-19T10:32:03.775Z,70.27
2018-02-19T10:34:32.035Z,69.62
2018-02-19T10:37:00.311Z,69.92
2018-02-19T10:39:28.559Z,69.04
2018-02-19T10:41:56.839Z,70.13
2018-02-19T10:44:25.107Z,68.31
2018-02-19T10:46:54.150Z,70.95
2018-02-19T10:49:22.424Z,71.42
2018-02-19T10:51:50.718Z,71.15
2018-02-19T10:54:18.995Z,70.85
2018-02-19T10:56:47.261Z,68.03
2018-02-19T10:59:16.304Z,68.99
2018-02-19T11:01:44.609Z,71.20
2018-02-19T11:04:19.577Z,71.45
2018-02-19T11:06:47.899Z,70.29
2018-02-19T11:09:16.930Z,71.91
2018-02-19T11:11:45.205Z,72.00
2018-02-19T11:14:13.483Z,72.97
2018-02-19T11:16:42.551Z,70.40
2018-02-19T11:19:10.813Z,67.78
2018-02-19T11:21:39.124Z,71.44
2018-02-19T11:24:07.468Z,69.64
2018-02-19T11:26:35.723Z,68.49
2018-02-19T11:29:03.992Z,68.68
2018-02-19T11:31:33.057Z,68.82
2018-02-19T11:34:01.489Z,68.78
2018-02-19T11:36:30.045Z,66.59
2018-02-19T11:38:58.977Z,64.31
2018-02-19T11:41:27.661Z,67.11
2018-02-19T11:43:56.053Z,66.87
2018-02-19T11:46:25.483Z,67.53
2018-02-19T11:48:53.896Z,64.61
2018-02-19T11:51:23.116Z,69.02
2018-02-19T11:53:51.754Z,68.40
2018-02-19T11:56:20.144Z,68.91
2018-02-19T11:58:48.711Z,68.00
2018-02-19T12:01:17.048Z,69.08
2018-02-19T12:03:45.663Z,69.05
2018-02-19T12:06:14.219Z,68.81
2018-02-19T12:08:43.349Z,69.72
2018-02-19T12:11:12.743Z,66.65
2018-02-19T12:13:42.075Z,67.48
2018-02-19T12:16:10.669Z,67.97
2018-02-19T12:18:38.970Z,67.86
2018-02-19T12:21:07.339Z,68.27
2018-02-19T12:23:35.830Z,67.52
2018-02-19T12:26:05.034Z,67.70
2018-02-19T12:28:34.168Z,68.73
2018-02-19T12:31:02.616Z,68.59
2018-02-19T12:33:31.152Z,66.71
2018-02-19T12:35:59.619Z,68.02
2018-02-19T12:38:29.051Z,65.93
2018-02-19T12:40:58.371Z,69.66
2018-02-19T12:43:26.677Z,67.88
2018-02-19T12:45:54.998Z,68.21
2018-02-19T12:48:23.487Z,70.46
2018-02-19T12:50:51.812Z,69.59
2018-02-19T12:53:20.092Z,69.46
2018-02-19T12:55:49.469Z,69.73
2018-02-19T12:58:17.982Z,69.14
2018-02-19T13:00:47.061Z,69.35
2018-02-19T13:03:15.414Z,71.13
2018-02-19T13:05:43.697Z,70.26
2018-02-19T13:08:12.817Z,71.51
2018-02-19T13:10:41.088Z,72.36
2018-02-19T13:13:09.465Z,70.39
2018-02-19T13:15:38.173Z,70.69
2018-02-19T13:18:06.795Z,71.58
2018-02-19T13:20:35.114Z,69.93
2018-02-19T13:23:03.420Z,71.50
2018-02-19T13:25:31.801Z,69.94
2018-02-19T13:28:00.067Z,71.53
2018-02-19T13:30:29.196Z,69.16
2018-02-19T13:32:58.454Z,69.31
2018-02-19T13:35:27.580Z,69.65
2018-02-19T13:37:56.767Z,72.94
2018-02-19T13:40:25.139Z,70.54
2018-02-19T13:42:54.218Z,70.33
2018-02-19T13:45:22.492Z,69.27
2018-02-19T13:47:51.003Z,69.63
2018-02-19T13:50:19.270Z,69.80
2018-02-19T13:52:47.783Z,69.34
2018-02-19T13:55:16.407Z,69.32
2018-02-19T13:57:44.736Z,69.83
2018-02-19T14:00:13.174Z,70.09
2018-02-19T14:02:41.751Z,70.45
2018-02-19T14:05:11.004Z,70.22
2018-02-19T14:07:39.405Z,69.96
2018-02-19T14:10:07.749Z,69.84
2018-02-19T14:12:36.045Z,70.41
2018-02-19T14:15:04.345Z,71.28
2018-02-19T14:17:32.743Z,70.63
2018-02-19T14:20:01.424Z,69.60
2018-02-19T14:22:29.787Z,68.66
2018-02-19T14:24:58.105Z,69.75
2018-02-19T14:27:26.407Z,69.27
2018-02-19T14:29:54.737Z,68.85
2018-02-19T14:32:23.768Z,71.34
2018-02-19T14:34:52.337Z,71.44
2018-02-19T14:37:21.946Z,71.93
2018-02-19T14:39:50.466Z,72.26
2018-02-19T14:42:19.531Z,72.67
2018-02-19T14:44:47.914Z,71.23
2018-02-19T14:47:16.386Z,71.97
2018-02-19T14:49:45.753Z,73.48
2018-02-19T14:52:14.321Z,72.93
2018-02-19T14:54:42.791Z,73.31
2018-02-19T14:57:11.154Z,72.96
2018-02-19T14:59:41.103Z,73.38
2018-02-19T15:02:10.027Z,72.72
2018-02-19T15:04:38.506Z,73.43
2018-02-19T15:07:06.946Z,74.17
2018-02-19T15:09:36.058Z,73.72
2018-02-19T15:12:04.478Z,75.80
2018-02-19T15:14:32.820Z,76.28
2018-02-19T15:17:01.123Z,76.37
2018-02-19T15:19:29.489Z,76.52
2018-02-19T15:21:58.084Z,75.95
2018-02-19T15:24:27.236Z,76.76
2018-02-19T15:26:56.464Z,77.12
2018-02-19T15:29:25.787Z,77.15
2018-02-19T15:31:54.529Z,77.77
2018-02-19T15:34:23.286Z,78.83
2018-02-19T15:36:52.023Z,80.36
2018-02-19T15:39:20.415Z,78.68
2018-02-19T15:41:49.754Z,78.21
2018-02-19T15:44:18.312Z,78.52
2018-02-19T15:46:48.241Z,77.53
2018-02-19T15:49:17.430Z,78.44
2018-02-19T15:51:46.035Z,77.77
2018-02-19T15:54:14.569Z,77.48
2018-02-19T15:56:42.881Z,77.51
2018-02-19T15:59:11.932Z,79.19
2018-02-19T16:01:40.230Z,78.73
2018-02-19T16:04:08.500Z,79.27
2018-02-19T16:06:36.996Z,79.19
2018-02-19T16:09:05.353Z,80.22
2018-02-19T16:11:33.658Z,80.94
2018-02-19T16:14:01.969Z,79.70
2018-02-19T16:16:30.926Z,79.82
2018-02-19T16:18:59.669Z,79.75
2018-02-19T16:21:27.970Z,81.10
2018-02-19T16:23:56.382Z,82.06
2018-02-19T16:26:24.732Z,82.00
2018-02-19T16:28:53.756Z,80.88
2018-02-19T16:31:22.995Z,81.75
2018-02-19T16:33:51.248Z,82.88
2018-02-19T16:36:20.399Z,82.40
2018-02-19T16:38:48.805Z,81.03
2018-02-19T16:41:17.220Z,80.21
2018-02-19T16:43:45.660Z,81.18
2018-02-19T16:46:14.014Z,81.20
2018-02-19T16:48:43.147Z,80.09
2018-02-19T16:51:11.579Z,80.78
2018-02-19T16:53:39.909Z,81.17
2018-02-19T16:56:08.973Z,81.96
2018-02-19T16:58:37.413Z,81.78
2018-02-19T17:01:06.617Z,82.22
2018-02-19T17:03:34.914Z,81.96
2018-02-19T17:06:04.078Z,81.73
2018-02-19T17:08:33.473Z,83.34
2018-02-19T17:11:01.937Z,89.03
2018-02-19T17:13:31.267Z,83.11
2018-02-19T17:15:59.908Z,83.62
2018-02-19T17:18:28.266Z,83.18
2018-02-19T17:20:56.984Z,82.95
2018-02-19T17:23:25.443Z,83.05
2018-02-19T17:25:54.657Z,82.89
2018-02-19T17:28:23.225Z,82.40
2018-02-19T17:30:52.402Z,82.85
2018-02-19T17:33:20.951Z,81.41
2018-02-19T17:35:54.053Z,81.77
2018-02-19T17:38:22.580Z,82.80
2018-02-19T17:40:51.028Z,83.12
2018-02-19T17:45:55.613Z,82.30
2018-02-19T17:48:24.384Z,82.82
2018-02-19T17:50:52.828Z,82.24
2018-02-19T17:53:21.253Z,82.55
2018-02-19T17:55:49.525Z,83.19
2018-02-19T17:58:17.905Z,83.02
2018-02-19T18:00:46.296Z,82.91
2018-02-19T18:03:14.571Z,82.22
2018-02-19T18:05:42.995Z,82.33
2018-02-19T18:08:11.542Z,81.08
2018-02-19T18:10:40.100Z,81.74
2018-02-19T18:13:09.153Z,82.03
2018-02-19T18:15:38.658Z,82.50
2018-02-19T18:18:07.175Z,82.33
2018-02-19T18:20:35.573Z,82.92
2018-02-19T18:23:04.110Z,83.22
2018-02-19T18:25:33.893Z,83.15
2018-02-19T18:28:02.246Z,82.63
2018-02-19T18:30:31.324Z,82.67
2018-02-19T18:32:59.862Z,82.84
2018-02-19T18:35:28.951Z,83.17
2018-02-19T18:37:57.338Z,83.49
2018-02-19T18:40:25.701Z,83.93
2018-02-19T18:42:54.011Z,82.75
2018-02-19T18:45:22.292Z,82.44
2018-02-19T18:47:50.828Z,81.64
2018-02-19T18:50:20.045Z,81.70
2018-02-19T18:52:49.223Z,81.31
2018-02-19T18:55:18.295Z,82.40
2018-02-19T18:57:46.715Z,83.40
2018-02-19T19:00:15.127Z,83.83
2018-02-19T19:02:44.181Z,84.60
2018-02-19T19:05:12.512Z,85.33
2018-02-19T19:07:58.436Z,84.58
2018-02-19T19:13:38.360Z,85.78
2018-02-19T19:16:06.697Z,85.49
2018-02-19T19:18:35.271Z,84.95
2018-02-19T19:21:04.437Z,85.38
2018-02-19T19:23:33.513Z,85.81
2018-02-19T19:26:02.050Z,86.12
2018-02-19T19:28:31.293Z,86.69
2018-02-19T19:30:59.570Z,86.97
2018-02-19T19:33:28.073Z,86.61
2018-02-19T19:35:56.417Z,86.47
2018-02-19T19:38:24.770Z,86.88
2018-02-19T19:40:53.153Z,86.95
2018-02-19T19:43:21.728Z,86.17
2018-02-19T19:45:50.049Z,86.63
2018-02-19T19:48:18.400Z,87.12
2018-02-19T19:50:46.800Z,87.80
2018-02-19T19:53:15.135Z,86.68
2018-02-19T19:55:43.406Z,86.50
2018-02-19T19:58:11.758Z,86.63
2018-02-19T20:00:40.853Z,86.71
2018-02-19T20:03:09.276Z,87.17
2018-02-19T20:05:38.995Z,86.35
2018-02-19T20:08:08.257Z,86.75
2018-02-19T20:10:36.811Z,86.94
2018-02-19T20:13:05.227Z,87.75
2018-02-19T20:15:33.673Z,86.72
2018-02-19T20:18:02.756Z,86.63
2018-02-19T20:20:31.123Z,86.88
2018-02-19T20:23:00.295Z,86.62
2018-02-19T20:25:28.663Z,85.68
2018-02-19T20:27:57.872Z,85.86
2018-02-19T20:30:26.911Z,85.76
2018-02-19T20:32:55.254Z,85.49
2018-02-19T20:35:24.420Z,85.66
2018-02-19T20:37:53.141Z,86.41
2018-02-19T20:40:21.553Z,86.81
2018-02-19T20:42:49.857Z,86.40
2018-02-19T20:45:18.348Z,85.99
2018-02-19T20:47:46.690Z,86.27
2018-02-19T20:50:15.020Z,85.00
2018-02-19T20:52:43.353Z,85.80
2018-02-19T20:55:11.742Z,87.02
2018-02-19T20:57:40.123Z,84.99
2018-02-19T21:00:08.569Z,84.97
2018-02-19T21:02:36.952Z,85.37
2018-02-19T21:05:05.261Z,85.39
2018-02-19T21:07:33.551Z,85.13
2018-02-19T21:10:01.996Z,85.12
2018-02-19T21:12:30.437Z,86.04
2018-02-19T21:14:58.823Z,86.13
2018-02-19T21:17:27.103Z,84.92
2018-02-19T21:19:55.696Z,85.39
2018-02-19T21:22:23.961Z,85.08
2018-02-19T21:24:52.296Z,84.12
2018-02-19T21:27:20.729Z,84.14
2018-02-19T21:29:49.080Z,84.50
2018-02-19T21:32:17.571Z,84.45
2018-02-19T21:34:46.080Z,84.51
2018-02-19T21:37:15.297Z,83.92
2018-02-19T21:39:44.907Z,84.42
2018-02-19T21:42:13.360Z,84.03
2018-02-19T21:44:42.815Z,83.91
2018-02-19T21:47:11.365Z,83.84
2018-02-19T21:49:40.464Z,84.40
2018-02-19T21:52:08.793Z,84.40
2018-02-19T21:54:37.082Z,84.79
2018-02-19T21:57:05.600Z,85.05
2018-02-19T21:59:34.240Z,85.02
2018-02-19T22:02:02.995Z,85.09
2018-02-19T22:04:31.314Z,85.07
2018-02-19T22:07:00.205Z,84.63
2018-02-19T22:09:28.677Z,85.56
2018-02-19T22:11:58.543Z,84.12
2018-02-19T22:14:27.323Z,83.40
2018-02-19T22:16:56.501Z,83.70
2018-02-19T22:19:25.104Z,83.24
2018-02-19T22:21:53.410Z,83.63
2018-02-19T22:24:21.850Z,83.48
2018-02-19T22:26:50.987Z,83.63
2018-02-19T22:29:19.483Z,84.56
2018-02-19T22:31:47.773Z,85.15
2018-02-19T22:34:16.099Z,85.11
2018-02-19T22:36:45.227Z,84.92
2018-02-19T22:39:13.840Z,84.71
2018-02-19T22:41:42.164Z,85.09
2018-02-19T22:44:12.372Z,84.66
2018-02-19T22:46:40.762Z,85.32
2018-02-19T22:49:09.315Z,85.17
2018-02-19T22:51:38.426Z,86.09
2018-02-19T22:54:07.727Z,86.93
2018-02-19T22:56:36.391Z,89.76
2018-02-19T22:59:04.857Z,90.29
2018-02-19T23:01:33.200Z,90.28
2018-02-19T23:04:01.754Z,90.32
2018-02-19T23:06:30.071Z,90.66
2018-02-19T23:08:59.333Z,90.73
2018-02-19T23:11:28.556Z,90.44
2018-02-19T23:13:57.053Z,90.21
2018-02-19T23:16:25.320Z,91.11
2018-02-19T23:18:54.340Z,90.68
2018-02-19T23:21:24.176Z,90.66
2018-02-19T23:23:52.440Z,90.82
2018-02-19T23:26:20.704Z,90.36
2018-02-19T23:28:48.951Z,91.12
2018-02-19T23:31:17.236Z,90.88
2018-02-19T23:33:45.500Z,90.45
2018-02-19T23:36:14.566Z,89.93
2018-02-19T23:38:42.864Z,89.97
2018-02-19T23:41:11.934Z,89.20
2018-02-19T23:43:40.219Z,87.21
2018-02-19T23:46:08.529Z,86.85
2018-02-19T23:48:36.812Z,87.02
2018-02-19T23:51:05.091Z,87.19
2018-02-19T23:53:33.361Z,86.96
2018-02-19T23:56:01.637Z,86.78
2018-02-19T23:58:30.664Z,87.14
